createdAt,value
2019-02-06T00:00:46.512Z,101297.63
2019-02-06T00:01:45.856Z,101296.80
2019-02-06T00:02:20.569Z,101299.66
2019-02-06T00:02:55.031Z,101297.16
2019-02-06T00:03:29.675Z,101296.69
2019-02-06T00:04:04.276Z,101295.08
2019-02-06T00:04:38.898Z,101296.72
2019-02-06T00:05:14.328Z,101297.96
2019-02-06T00:05:49.428Z,101299.66
2019-02-06T00:06:23.819Z,101296.16
2019-02-06T00:06:58.570Z,101299.16
2019-02-06T00:07:32.914Z,101298.68
2019-02-06T00:08:07.843Z,101291.37
2019-02-06T00:08:42.316Z,101305.38
2019-02-06T00:09:17.665Z,101298.53
2019-02-06T00:09:52.019Z,101307.94
2019-02-06T00:10:26.647Z,101301.97
2019-02-06T00:11:01.333Z,101304.05
2019-02-06T00:11:35.999Z,101308.29
2019-02-06T00:12:10.339Z,101306.62
2019-02-06T00:12:44.981Z,101299.36
2019-02-06T00:13:19.299Z,101301.11
2019-02-06T00:13:54.624Z,101294.70
2019-02-06T00:14:29.167Z,101307.45
2019-02-06T00:15:04.351Z,101300.55
2019-02-06T00:15:38.989Z,101307.75
2019-02-06T00:16:13.873Z,101301.84
2019-02-06T00:16:48.209Z,101301.44
2019-02-06T00:17:22.519Z,101301.79
2019-02-06T00:17:57.222Z,101304.75
2019-02-06T00:18:32.033Z,101309.38
2019-02-06T00:19:06.485Z,101306.86
2019-02-06T00:19:41.073Z,101304.75
2019-02-06T00:20:15.487Z,101300.45
2019-02-06T00:20:49.762Z,101301.28
2019-02-06T00:21:24.371Z,101293.98
2019-02-06T00:21:58.736Z,101308.94
2019-02-06T00:22:33.489Z,101296.05
2019-02-06T00:23:08.179Z,101306.28
2019-02-06T00:23:42.798Z,101300.80
2019-02-06T00:24:17.546Z,101307.66
2019-02-06T00:24:51.934Z,101297.45
2019-02-06T00:25:26.547Z,101300.03
2019-02-06T00:26:00.954Z,101299.20
2019-02-06T00:26:35.762Z,101300.87
2019-02-06T00:27:10.096Z,101298.22
2019-02-06T00:27:44.808Z,101301.19
2019-02-06T00:28:19.437Z,101301.59
2019-02-06T00:28:54.495Z,101300.74
2019-02-06T00:29:28.831Z,101302.88
2019-02-06T00:30:05.227Z,101300.27
2019-02-06T00:30:39.567Z,101303.29
2019-02-06T00:31:14.092Z,101296.44
2019-02-06T00:31:48.736Z,101296.88
2019-02-06T00:32:23.491Z,101299.78
2019-02-06T00:32:57.856Z,101297.65
2019-02-06T00:33:32.594Z,101298.92
2019-02-06T00:34:06.969Z,101299.34
2019-02-06T00:34:41.488Z,101295.06
2019-02-06T00:35:25.499Z,101293.76
2019-02-06T00:35:52.375Z,101298.89
2019-02-06T00:36:26.780Z,101303.58
2019-02-06T00:37:01.214Z,101301.03
2019-02-06T00:37:35.577Z,101303.52
2019-02-06T00:38:09.926Z,101298.06
2019-02-06T00:38:44.528Z,101297.23
2019-02-06T00:39:18.875Z,101296.81
2019-02-06T00:39:53.515Z,101294.30
2019-02-06T00:40:28.134Z,101299.46
2019-02-06T00:41:03.149Z,101296.21
2019-02-06T00:41:37.555Z,101293.19
2019-02-06T00:42:11.911Z,101305.05
2019-02-06T00:42:46.280Z,101297.36
2019-02-06T00:43:20.899Z,101301.09
2019-02-06T00:43:55.503Z,101300.61
2019-02-06T00:44:29.923Z,101297.17
2019-02-06T00:45:04.871Z,101295.48
2019-02-06T00:45:39.208Z,101300.23
2019-02-06T00:46:13.556Z,101301.50
2019-02-06T00:46:47.989Z,101294.59
2019-02-06T00:47:22.398Z,101300.61
2019-02-06T00:47:56.809Z,101298.51
2019-02-06T00:48:31.241Z,101295.09
2019-02-06T00:49:05.831Z,101289.52
2019-02-06T00:49:40.481Z,101300.64
2019-02-06T00:50:15.256Z,101291.27
2019-02-06T00:50:49.602Z,101295.58
2019-02-06T00:51:23.958Z,101299.41
2019-02-06T00:51:58.494Z,101281.94
2019-02-06T00:52:33.008Z,101297.74
2019-02-06T00:53:07.671Z,101292.13
2019-02-06T00:53:42.022Z,101290.89
2019-02-06T00:54:16.647Z,101292.58
2019-02-06T00:54:51.257Z,101293.41
2019-02-06T00:55:25.648Z,101295.92
2019-02-06T00:56:00.139Z,101289.45
2019-02-06T00:56:34.605Z,101290.28
2019-02-06T00:57:08.988Z,101291.56
2019-02-06T00:57:43.339Z,101294.97
2019-02-06T00:58:17.678Z,101300.13
2019-02-06T00:58:52.352Z,101296.30
2019-02-06T00:59:26.733Z,101296.75
2019-02-06T01:00:01.143Z,101298.89
2019-02-06T01:00:35.615Z,101297.62
2019-02-06T01:01:10.404Z,101295.55
2019-02-06T01:01:44.976Z,101303.22
2019-02-06T01:02:19.523Z,101301.50
2019-02-06T01:02:54.017Z,101299.81
2019-02-06T01:03:28.366Z,101301.89
2019-02-06T01:04:02.842Z,101304.59
2019-02-06T01:04:37.337Z,101302.37
2019-02-06T01:05:14.081Z,101305.30
2019-02-06T01:05:48.634Z,101300.55
2019-02-06T01:06:22.994Z,101299.69
2019-02-06T01:06:57.350Z,101302.20
2019-02-06T01:07:32.058Z,101299.69
2019-02-06T01:08:06.583Z,101303.89
2019-02-06T01:08:40.904Z,101302.17
2019-02-06T01:09:15.258Z,101303.03
2019-02-06T01:09:49.692Z,101302.62
2019-02-06T01:10:24.094Z,101306.89
2019-02-06T01:10:58.461Z,101304.41
2019-02-06T01:11:32.833Z,101299.20
2019-02-06T01:12:07.524Z,101298.34
2019-02-06T01:12:41.858Z,101297.65
2019-02-06T01:13:16.199Z,101295.45
2019-02-06T01:13:50.809Z,101292.45
2019-02-06T01:14:25.116Z,101296.66
2019-02-06T01:14:59.500Z,101291.52
2019-02-06T01:15:33.901Z,101294.94
2019-02-06T01:16:08.583Z,101294.91
2019-02-06T01:16:42.916Z,101299.17
2019-02-06T01:17:17.374Z,101295.80
2019-02-06T01:17:51.715Z,101295.80
2019-02-06T01:18:26.064Z,101291.27
2019-02-06T01:19:00.484Z,101295.06
2019-02-06T01:19:34.934Z,101294.62
2019-02-06T01:20:10.122Z,101290.70
2019-02-06T01:20:44.481Z,101290.22
2019-02-06T01:21:18.819Z,101294.91
2019-02-06T01:21:53.196Z,101299.07
2019-02-06T01:22:27.654Z,101295.63
2019-02-06T01:23:02.414Z,101296.02
2019-02-06T01:23:37.142Z,101291.81
2019-02-06T01:24:11.668Z,101294.73
2019-02-06T01:24:46.282Z,101289.16
2019-02-06T01:25:20.908Z,101290.12
2019-02-06T01:25:55.511Z,101291.73
2019-02-06T01:26:30.386Z,101291.70
2019-02-06T01:27:05.033Z,101290.53
2019-02-06T01:27:39.468Z,101290.95
2019-02-06T01:28:13.815Z,101290.91
2019-02-06T01:28:48.331Z,101285.33
2019-02-06T01:29:22.685Z,101294.25
2019-02-06T01:29:57.266Z,101295.50
2019-02-06T01:30:37.112Z,101293.39
2019-02-06T01:31:15.537Z,101292.95
2019-02-06T01:31:49.837Z,101287.84
2019-02-06T01:32:24.434Z,101290.09
2019-02-06T01:32:58.783Z,101290.02
2019-02-06T01:33:33.152Z,101289.16
2019-02-06T01:34:07.547Z,101291.70
2019-02-06T01:34:41.873Z,101285.27
2019-02-06T01:35:16.464Z,101289.92
2019-02-06T01:35:50.815Z,101291.67
2019-02-06T01:36:25.235Z,101297.63
2019-02-06T01:37:00.115Z,101292.56
2019-02-06T01:37:34.503Z,101289.57
2019-02-06T01:38:08.857Z,101288.64
2019-02-06T01:38:43.203Z,101292.50
2019-02-06T01:39:17.536Z,101293.39
2019-02-06T01:39:51.975Z,101294.25
2019-02-06T01:40:26.322Z,101294.77
2019-02-06T01:41:00.732Z,101295.53
2019-02-06T01:41:35.125Z,101295.08
2019-02-06T01:42:09.816Z,101298.49
2019-02-06T01:42:44.348Z,101306.48
2019-02-06T01:43:18.697Z,101295.80
2019-02-06T01:43:53.126Z,101296.59
2019-02-06T01:44:27.507Z,101297.87
2019-02-06T01:45:02.279Z,101302.48
2019-02-06T01:45:36.716Z,101299.42
2019-02-06T01:46:11.094Z,101300.35
2019-02-06T01:46:46.046Z,101302.90
2019-02-06T01:47:20.481Z,101306.31
2019-02-06T01:47:55.136Z,101302.45
2019-02-06T01:48:29.777Z,101310.92
2019-02-06T01:49:04.584Z,101305.79
2019-02-06T01:49:39.060Z,101302.80
2019-02-06T01:50:15.377Z,101304.06
2019-02-06T01:50:49.678Z,101297.25
2019-02-06T01:51:24.022Z,101304.52
2019-02-06T01:51:58.718Z,101299.34
2019-02-06T01:52:33.089Z,101305.72
2019-02-06T01:53:07.470Z,101302.20
2019-02-06T01:53:41.931Z,101304.27
2019-02-06T01:54:16.304Z,101311.12
2019-02-06T01:54:50.765Z,101304.75
2019-02-06T01:55:25.455Z,101302.65
2019-02-06T01:55:59.867Z,101302.20
2019-02-06T01:56:34.226Z,101303.84
2019-02-06T01:57:08.917Z,101306.02
2019-02-06T01:57:43.281Z,101309.09
2019-02-06T01:58:17.879Z,101299.65
2019-02-06T01:58:52.257Z,101300.03
2019-02-06T01:59:26.864Z,101304.30
2019-02-06T02:00:01.273Z,101302.20
2019-02-06T02:00:35.942Z,101306.58
2019-02-06T02:01:10.335Z,101308.72
2019-02-06T02:01:44.709Z,101302.69
2019-02-06T02:02:19.055Z,101306.92
2019-02-06T02:02:53.664Z,101306.54
2019-02-06T02:03:28.313Z,101301.03
2019-02-06T02:04:02.936Z,101298.86
2019-02-06T02:04:37.350Z,101305.72
2019-02-06T02:05:12.758Z,101300.14
2019-02-06T02:05:47.478Z,101300.58
2019-02-06T02:06:21.900Z,101303.51
2019-02-06T02:06:56.555Z,101295.87
2019-02-06T02:07:31.012Z,101303.06
2019-02-06T02:08:05.715Z,101303.88
2019-02-06T02:08:45.993Z,101300.03
2019-02-06T02:09:20.694Z,101294.37
2019-02-06T02:09:55.171Z,101300.41
2019-02-06T02:10:29.941Z,101299.61
2019-02-06T02:11:05.051Z,101297.86
2019-02-06T02:11:39.469Z,101294.78
2019-02-06T02:12:13.979Z,101298.56
2019-02-06T02:12:48.463Z,101296.44
2019-02-06T02:13:23.128Z,101288.27
2019-02-06T02:13:58.065Z,101295.02
2019-02-06T02:14:32.491Z,101281.72
2019-02-06T02:15:09.015Z,101290.66
2019-02-06T02:15:43.629Z,101287.22
2019-02-06T02:16:18.337Z,101286.44
2019-02-06T02:16:52.723Z,101282.54
2019-02-06T02:17:27.669Z,101284.19
2019-02-06T02:18:02.453Z,101276.95
2019-02-06T02:18:36.859Z,101281.59
2019-02-06T02:19:11.554Z,101280.36
2019-02-06T02:19:46.067Z,101279.42
2019-02-06T02:20:21.989Z,101286.20
2019-02-06T02:20:56.375Z,101280.70
2019-02-06T02:21:30.835Z,101279.84
2019-02-06T02:22:05.549Z,101278.64
2019-02-06T02:22:40.050Z,101275.13
2019-02-06T02:23:14.413Z,101282.80
2019-02-06T02:23:49.072Z,101283.17
2019-02-06T02:24:24.035Z,101280.17
2019-02-06T02:24:58.777Z,101280.17
2019-02-06T02:25:33.817Z,101285.27
2019-02-06T02:26:08.362Z,101271.19
2019-02-06T02:26:43.058Z,101273.66
2019-02-06T02:27:17.686Z,101272.42
2019-02-06T02:27:52.161Z,101271.19
2019-02-06T02:28:26.531Z,101275.41
2019-02-06T02:29:01.226Z,101277.52
2019-02-06T02:29:35.755Z,101271.11
2019-02-06T02:30:12.015Z,101270.77
2019-02-06T02:30:49.854Z,101272.91
2019-02-06T02:31:24.539Z,101272.16
2019-02-06T02:31:59.009Z,101278.08
2019-02-06T02:32:33.582Z,101271.63
2019-02-06T02:33:08.060Z,101273.39
2019-02-06T02:33:42.671Z,101270.77
2019-02-06T02:34:17.141Z,101271.56
2019-02-06T02:34:51.555Z,101269.50
2019-02-06T02:35:26.195Z,101264.30
2019-02-06T02:36:00.926Z,101264.74
2019-02-06T02:36:35.443Z,101265.11
2019-02-06T02:37:09.873Z,101266.80
2019-02-06T02:37:44.269Z,101267.70
2019-02-06T02:38:18.636Z,101270.58
2019-02-06T02:38:53.026Z,101260.40
2019-02-06T02:39:27.418Z,101269.72
2019-02-06T02:40:02.451Z,101266.80
2019-02-06T02:40:36.840Z,101269.68
2019-02-06T02:41:11.552Z,101269.27
2019-02-06T02:41:46.040Z,101268.77
2019-02-06T02:42:20.421Z,101267.39
2019-02-06T02:42:54.899Z,101267.02
2019-02-06T02:43:29.336Z,101268.41
2019-02-06T02:44:03.798Z,101264.06
2019-02-06T02:44:38.211Z,101270.95
2019-02-06T02:45:14.633Z,101265.91
2019-02-06T02:45:49.620Z,101262.49
2019-02-06T02:46:24.091Z,101268.94
2019-02-06T02:46:58.867Z,101259.08
2019-02-06T02:47:33.586Z,101259.08
2019-02-06T02:48:08.287Z,101262.45
2019-02-06T02:48:42.931Z,101253.05
2019-02-06T02:49:17.782Z,101260.31
2019-02-06T02:49:52.164Z,101258.59
2019-02-06T02:50:26.845Z,101254.73
2019-02-06T02:51:01.375Z,101259.83
2019-02-06T02:51:36.602Z,101255.56
2019-02-06T02:52:11.248Z,101264.09
2019-02-06T02:52:46.046Z,101259.91
2019-02-06T02:53:20.454Z,101268.36
2019-02-06T02:53:55.158Z,101261.03
2019-02-06T02:54:30.222Z,101261.96
2019-02-06T02:55:05.747Z,101267.13
2019-02-06T02:55:40.129Z,101260.84
2019-02-06T02:56:15.053Z,101265.08
2019-02-06T02:56:49.684Z,101261.18
2019-02-06T02:57:24.350Z,101260.77
2019-02-06T02:57:59.045Z,101257.55
2019-02-06T02:58:33.759Z,101248.65
2019-02-06T02:59:08.456Z,101260.92
2019-02-06T02:59:43.377Z,101260.47
2019-02-06T03:00:19.672Z,101258.30
2019-02-06T03:01:15.854Z,101257.52
2019-02-06T03:01:56.840Z,101251.90
2019-02-06T03:02:59.331Z,101256.83
2019-02-06T03:03:43.293Z,101254.66
2019-02-06T03:04:28.316Z,101249.77
2019-02-06T03:05:06.772Z,101249.31
2019-02-06T03:05:41.174Z,101250.02
2019-02-06T03:06:27.140Z,101250.92
2019-02-06T03:06:51.727Z,101250.88
2019-02-06T03:07:26.205Z,101255.93
2019-02-06T03:08:00.659Z,101254.20
2019-02-06T03:08:35.053Z,101246.53
2019-02-06T03:09:13.192Z,101244.19
2019-02-06T03:09:47.566Z,101250.59
2019-02-06T03:10:21.951Z,101251.48
2019-02-06T03:10:56.331Z,101250.17
2019-02-06T03:11:31.137Z,101251.86
2019-02-06T03:12:05.568Z,101243.66
2019-02-06T03:12:40.016Z,101242.80
2019-02-06T03:13:14.331Z,101255.19
2019-02-06T03:13:48.716Z,101258.93
2019-02-06T03:14:23.331Z,101245.27
2019-02-06T03:14:57.673Z,101252.52
2019-02-06T03:15:32.466Z,101245.19
2019-02-06T03:16:06.873Z,101250.27
2019-02-06T03:16:41.218Z,101247.27
2019-02-06T03:17:15.589Z,101252.81
2019-02-06T03:17:50.196Z,101253.67
2019-02-06T03:18:24.645Z,101254.13
2019-02-06T03:18:58.991Z,101248.88
2019-02-06T03:19:33.356Z,101246.45
2019-02-06T03:20:09.300Z,101249.41
2019-02-06T03:20:44.135Z,101252.89
2019-02-06T03:21:18.467Z,101248.14
2019-02-06T03:21:52.827Z,101254.58
2019-02-06T03:22:27.169Z,101249.91
2019-02-06T03:23:01.948Z,101241.36
2019-02-06T03:23:36.349Z,101253.30
2019-02-06T03:24:10.687Z,101250.39
2019-02-06T03:24:45.044Z,101247.84
2019-02-06T03:25:19.391Z,101245.67
2019-02-06T03:25:53.977Z,101238.41
2019-02-06T03:26:28.366Z,101242.72
2019-02-06T03:27:02.857Z,101243.20
2019-02-06T03:27:37.219Z,101240.63
2019-02-06T03:28:11.553Z,101243.66
2019-02-06T03:28:46.154Z,101241.94
2019-02-06T03:29:20.484Z,101239.39
2019-02-06T03:29:54.835Z,101238.98
2019-02-06T03:30:29.195Z,101234.70
2019-02-06T03:31:03.600Z,101241.52
2019-02-06T03:31:37.951Z,101235.94
2019-02-06T03:32:12.575Z,101237.63
2019-02-06T03:32:46.939Z,101230.89
2019-02-06T03:33:21.292Z,101236.92
2019-02-06T03:33:55.906Z,101235.12
2019-02-06T03:34:30.321Z,101234.70
2019-02-06T03:35:05.950Z,101238.45
2019-02-06T03:35:40.363Z,101236.31
2019-02-06T03:36:14.764Z,101239.80
2019-02-06T03:36:49.085Z,101227.78
2019-02-06T03:37:23.672Z,101235.91
2019-02-06T03:37:58.326Z,101223.52
2019-02-06T03:38:32.714Z,101233.31
2019-02-06T03:39:09.260Z,101228.11
2019-02-06T03:39:43.627Z,101232.05
2019-02-06T03:40:18.184Z,101226.96
2019-02-06T03:40:52.514Z,101231.11
2019-02-06T03:41:26.962Z,101232.01
2019-02-06T03:42:01.348Z,101229.87
2019-02-06T03:42:35.732Z,101230.70
2019-02-06T03:43:10.073Z,101230.73
2019-02-06T03:43:44.420Z,101229.87
2019-02-06T03:44:18.739Z,101228.97
2019-02-06T03:44:53.110Z,101232.95
2019-02-06T03:45:27.733Z,101226.22
2019-02-06T03:46:02.160Z,101232.62
2019-02-06T03:46:36.508Z,101232.61
2019-02-06T03:47:10.867Z,101233.03
2019-02-06T03:47:45.245Z,101232.98
2019-02-06T03:48:19.586Z,101231.72
2019-02-06T03:48:53.947Z,101235.58
2019-02-06T03:49:28.389Z,101235.16
2019-02-06T03:50:02.836Z,101232.58
2019-02-06T03:50:37.423Z,101230.11
2019-02-06T03:51:11.779Z,101231.16
2019-02-06T03:51:46.384Z,101232.36
2019-02-06T03:52:20.733Z,101233.11
2019-02-06T03:52:55.150Z,101232.20
2019-02-06T03:53:29.604Z,101231.84
2019-02-06T03:54:04.509Z,101237.30
2019-02-06T03:54:39.123Z,101231.75
2019-02-06T03:55:13.494Z,101233.02
2019-02-06T03:55:48.115Z,101234.67
2019-02-06T03:56:22.475Z,101236.35
2019-02-06T03:56:56.924Z,101239.77
2019-02-06T03:57:31.295Z,101236.80
2019-02-06T03:58:06.139Z,101237.17
2019-02-06T03:58:40.514Z,101237.14
2019-02-06T03:59:14.872Z,101227.41
2019-02-06T03:59:49.202Z,101232.09
2019-02-06T04:00:23.545Z,101238.11
2019-02-06T04:00:57.873Z,101239.80
2019-02-06T04:01:32.340Z,101234.75
2019-02-06T04:02:07.034Z,101234.30
2019-02-06T04:02:41.376Z,101237.45
2019-02-06T04:03:15.700Z,101233.11
2019-02-06T04:03:50.040Z,101234.87
2019-02-06T04:04:24.366Z,101234.05
2019-02-06T04:04:58.708Z,101234.79
2019-02-06T04:05:33.097Z,101236.92
2019-02-06T04:06:07.540Z,101231.84
2019-02-06T04:06:53.658Z,101238.61
2019-02-06T04:07:17.924Z,101227.94
2019-02-06T04:07:52.854Z,101237.86
2019-02-06T04:08:27.185Z,101228.84
2019-02-06T04:09:01.576Z,101238.98
2019-02-06T04:09:35.928Z,101232.16
2019-02-06T04:10:12.203Z,101236.44
2019-02-06T04:10:46.608Z,101235.98
2019-02-06T04:11:21.191Z,101227.00
2019-02-06T04:11:55.528Z,101235.45
2019-02-06T04:12:29.952Z,101229.02
2019-02-06T04:13:04.299Z,101221.83
2019-02-06T04:13:38.677Z,101226.09
2019-02-06T04:14:13.026Z,101227.73
2019-02-06T04:14:47.649Z,101224.30
2019-02-06T04:15:22.110Z,101226.06
2019-02-06T04:15:56.701Z,101232.88
2019-02-06T04:16:31.148Z,101232.05
2019-02-06T04:17:05.655Z,101220.06
2019-02-06T04:17:39.951Z,101225.61
2019-02-06T04:18:14.289Z,101223.44
2019-02-06T04:18:48.728Z,101229.50
2019-02-06T04:19:23.056Z,101224.78
2019-02-06T04:19:57.522Z,101228.27
2019-02-06T04:20:31.904Z,101230.81
2019-02-06T04:21:06.533Z,101229.50
2019-02-06T04:21:40.902Z,101230.94
2019-02-06T04:22:15.511Z,101230.93
2019-02-06T04:22:50.253Z,101226.10
2019-02-06T04:23:24.625Z,101226.95
2019-02-06T04:23:58.952Z,101220.67
2019-02-06T04:24:33.357Z,101228.80
2019-02-06T04:25:07.860Z,101225.73
2019-02-06T04:25:42.215Z,101229.13
2019-02-06T04:26:16.804Z,101222.70
2019-02-06T04:26:51.138Z,101225.23
2019-02-06T04:27:26.054Z,101234.22
2019-02-06T04:28:00.489Z,101231.30
2019-02-06T04:28:34.842Z,101217.02
2019-02-06T04:29:09.226Z,101233.70
2019-02-06T04:29:43.839Z,101227.27
2019-02-06T04:30:18.410Z,101232.36
2019-02-06T04:30:52.776Z,101229.41
2019-02-06T04:31:27.157Z,101221.28
2019-02-06T04:32:01.797Z,101226.74
2019-02-06T04:32:36.178Z,101217.76
2019-02-06T04:33:10.538Z,101223.37
2019-02-06T04:33:44.868Z,101225.06
2019-02-06T04:34:19.229Z,101222.44
2019-02-06T04:34:53.551Z,101223.75
2019-02-06T04:35:27.934Z,101227.12
2019-02-06T04:36:02.328Z,101225.77
2019-02-06T04:36:37.047Z,101223.55
2019-02-06T04:37:11.376Z,101231.75
2019-02-06T04:37:45.857Z,101229.63
2019-02-06T04:38:20.199Z,101227.45
2019-02-06T04:38:54.829Z,101232.98
2019-02-06T04:39:29.490Z,101228.34
2019-02-06T04:40:04.670Z,101227.94
2019-02-06T04:40:39.322Z,101227.27
2019-02-06T04:41:13.734Z,101225.58
2019-02-06T04:41:48.151Z,101225.13
2019-02-06T04:42:22.518Z,101231.01
2019-02-06T04:42:57.113Z,101230.56
2019-02-06T04:43:31.764Z,101228.76
2019-02-06T04:44:06.355Z,101226.67
2019-02-06T04:44:40.682Z,101225.35
2019-02-06T04:45:16.147Z,101232.54
2019-02-06T04:45:50.617Z,101221.91
2019-02-06T04:46:24.961Z,101227.41
2019-02-06T04:46:59.680Z,101224.49
2019-02-06T04:47:34.036Z,101224.58
2019-02-06T04:48:08.555Z,101223.30
2019-02-06T04:48:43.027Z,101214.72
2019-02-06T04:49:17.332Z,101221.58
2019-02-06T04:49:51.672Z,101217.77
2019-02-06T04:50:26.283Z,101222.06
2019-02-06T04:51:00.971Z,101224.20
2019-02-06T04:51:35.388Z,101219.07
2019-02-06T04:52:09.733Z,101217.39
2019-02-06T04:52:44.071Z,101218.62
2019-02-06T04:53:18.502Z,101208.86
2019-02-06T04:53:52.861Z,101214.88
2019-02-06T04:54:27.211Z,101217.13
2019-02-06T04:55:01.948Z,101217.58
2019-02-06T04:55:36.347Z,101214.95
2019-02-06T04:56:10.709Z,101216.30
2019-02-06T04:56:45.055Z,101221.80
2019-02-06T04:57:19.406Z,101215.52
2019-02-06T04:57:53.791Z,101221.77
2019-02-06T04:58:28.480Z,101222.17
2019-02-06T04:59:03.099Z,101224.61
2019-02-06T04:59:37.719Z,101219.48
2019-02-06T05:00:18.503Z,101221.46
2019-02-06T05:00:53.202Z,101214.61
2019-02-06T05:01:27.595Z,101224.42
2019-02-06T05:02:01.996Z,101229.36
2019-02-06T05:02:36.493Z,101224.35
2019-02-06T05:03:10.911Z,101231.50
2019-02-06T05:03:45.274Z,101231.88
2019-02-06T05:04:19.614Z,101232.28
2019-02-06T05:04:53.959Z,101232.62
2019-02-06T05:05:28.477Z,101227.45
2019-02-06T05:06:02.866Z,101225.84
2019-02-06T05:06:37.227Z,101231.88
2019-02-06T05:07:19.347Z,101234.75
2019-02-06T05:07:47.598Z,101235.98
2019-02-06T05:08:22.193Z,101230.48
2019-02-06T05:08:57.607Z,101232.98
2019-02-06T05:09:32.034Z,101232.95
2019-02-06T05:10:07.579Z,101229.84
2019-02-06T05:10:41.975Z,101240.50
2019-02-06T05:11:16.425Z,101227.70
2019-02-06T05:11:50.796Z,101233.24
2019-02-06T05:12:25.107Z,101234.14
2019-02-06T05:12:59.568Z,101235.94
2019-02-06T05:13:33.930Z,101234.67
2019-02-06T05:14:08.295Z,101236.69
2019-02-06T05:14:42.665Z,101235.75
2019-02-06T05:15:17.447Z,101237.43
2019-02-06T05:15:51.864Z,101241.70
2019-02-06T05:16:26.204Z,101237.39
2019-02-06T05:17:00.592Z,101241.03
2019-02-06T05:17:35.049Z,101243.95
2019-02-06T05:18:09.399Z,101243.20
2019-02-06T05:18:43.740Z,101244.59
2019-02-06T05:19:18.120Z,101245.80
2019-02-06T05:19:52.482Z,101237.59
2019-02-06T05:20:37.224Z,101243.54
2019-02-06T05:21:13.061Z,101244.32
2019-02-06T05:21:47.391Z,101237.75
2019-02-06T05:22:21.913Z,101235.61
2019-02-06T05:22:56.487Z,101239.92
2019-02-06T05:23:31.478Z,101239.28
2019-02-06T05:24:05.949Z,101232.36
2019-02-06T05:24:40.686Z,101232.36
2019-02-06T05:25:15.068Z,101233.93
2019-02-06T05:25:49.679Z,101233.02
2019-02-06T05:26:24.333Z,101231.72
2019-02-06T05:26:59.059Z,101229.55
2019-02-06T05:27:33.414Z,101228.38
2019-02-06T05:28:08.788Z,101230.81
2019-02-06T05:28:43.442Z,101223.47
2019-02-06T05:29:18.056Z,101230.33
2019-02-06T05:29:52.398Z,101226.91
2019-02-06T05:30:27.165Z,101230.06
2019-02-06T05:31:01.910Z,101231.01
2019-02-06T05:31:36.701Z,101227.08
2019-02-06T05:32:11.044Z,101229.38
2019-02-06T05:32:45.718Z,101222.00
2019-02-06T05:33:20.025Z,101235.41
2019-02-06T05:33:54.640Z,101229.99
2019-02-06T05:34:29.121Z,101233.31
2019-02-06T05:35:03.705Z,101224.63
2019-02-06T05:35:38.065Z,101230.87
2019-02-06T05:36:12.779Z,101223.15
2019-02-06T05:36:50.826Z,101229.14
2019-02-06T05:37:31.643Z,101230.78
2019-02-06T05:38:00.035Z,101234.56
2019-02-06T05:38:34.663Z,101230.25
2019-02-06T05:39:09.464Z,101231.11
2019-02-06T05:39:43.964Z,101231.06
2019-02-06T05:40:18.308Z,101227.22
2019-02-06T05:40:52.827Z,101229.30
2019-02-06T05:41:27.237Z,101228.48
2019-02-06T05:42:01.841Z,101231.19
2019-02-06T05:42:36.240Z,101229.47
2019-02-06T05:43:10.766Z,101231.16
2019-02-06T05:43:45.092Z,101234.06
2019-02-06T05:44:19.591Z,101231.44
2019-02-06T05:44:53.939Z,101226.27
2019-02-06T05:45:28.654Z,101226.67
2019-02-06T05:46:03.156Z,101229.67
2019-02-06T05:46:37.894Z,101236.44
2019-02-06T05:47:12.241Z,101230.17
2019-02-06T05:47:47.131Z,101227.55
2019-02-06T05:48:21.485Z,101228.77
2019-02-06T05:48:56.703Z,101226.64
2019-02-06T05:49:32.824Z,101232.91
2019-02-06T05:50:08.144Z,101229.91
2019-02-06T05:50:42.563Z,101229.51
2019-02-06T05:51:17.044Z,101229.26
2019-02-06T05:51:52.272Z,101232.22
2019-02-06T05:52:26.648Z,101223.84
2019-02-06T05:53:01.171Z,101230.53
2019-02-06T05:53:35.794Z,101230.54
2019-02-06T05:54:10.154Z,101227.05
2019-02-06T05:54:44.663Z,101232.41
2019-02-06T05:55:19.224Z,101228.06
2019-02-06T05:55:53.939Z,101233.14
2019-02-06T05:56:28.291Z,101230.19
2019-02-06T05:57:03.136Z,101239.09
2019-02-06T05:57:37.515Z,101232.20
2019-02-06T05:58:12.125Z,101235.56
2019-02-06T05:58:46.489Z,101233.88
2019-02-06T05:59:20.991Z,101236.83
2019-02-06T05:59:55.734Z,101230.03
2019-02-06T06:00:37.628Z,101236.34
2019-02-06T06:01:12.361Z,101232.24
2019-02-06T06:01:46.723Z,101233.16
2019-02-06T06:02:21.106Z,101233.88
2019-02-06T06:02:55.741Z,101231.42
2019-02-06T06:03:30.140Z,101233.14
2019-02-06T06:04:04.518Z,101228.92
2019-02-06T06:04:38.919Z,101229.70
2019-02-06T06:05:13.675Z,101231.38
2019-02-06T06:05:48.015Z,101226.38
2019-02-06T06:06:22.414Z,101221.09
2019-02-06T06:06:56.776Z,101223.64
2019-02-06T06:07:44.117Z,101219.70
2019-02-06T06:08:07.677Z,101221.25
2019-02-06T06:08:42.015Z,101222.97
2019-02-06T06:09:16.370Z,101220.84
2019-02-06T06:09:50.696Z,101217.89
2019-02-06T06:10:25.033Z,101220.07
2019-02-06T06:10:59.393Z,101217.77
2019-02-06T06:11:33.805Z,101215.30
2019-02-06T06:12:08.333Z,101209.12
2019-02-06T06:12:42.710Z,101205.63
2019-02-06T06:13:18.503Z,101213.66
2019-02-06T06:13:53.122Z,101209.36
2019-02-06T06:14:27.473Z,101211.00
2019-02-06T06:15:01.901Z,101209.31
2019-02-06T06:15:36.269Z,101209.85
2019-02-06T06:16:10.925Z,101210.14
2019-02-06T06:16:45.321Z,101209.23
2019-02-06T06:17:19.677Z,101215.63
2019-02-06T06:17:54.032Z,101208.83
2019-02-06T06:18:28.512Z,101208.58
2019-02-06T06:19:03.196Z,101205.67
2019-02-06T06:19:37.535Z,101204.32
2019-02-06T06:20:12.483Z,101203.78
2019-02-06T06:20:46.820Z,101204.64
2019-02-06T06:21:21.441Z,101205.95
2019-02-06T06:21:56.361Z,101207.19
2019-02-06T06:22:30.742Z,101207.59
2019-02-06T06:23:05.104Z,101207.39
2019-02-06T06:23:39.440Z,101205.22
2019-02-06T06:24:13.785Z,101200.83
2019-02-06T06:24:48.114Z,101204.16
2019-02-06T06:25:22.567Z,101197.67
2019-02-06T06:25:57.182Z,101204.23
2019-02-06T06:26:31.545Z,101202.44
2019-02-06T06:27:06.230Z,101203.50
2019-02-06T06:27:40.559Z,101201.45
2019-02-06T06:28:15.165Z,101205.97
2019-02-06T06:28:49.509Z,101206.66
2019-02-06T06:29:23.947Z,101206.70
2019-02-06T06:29:58.407Z,101208.75
2019-02-06T06:30:32.916Z,101204.40
2019-02-06T06:31:07.246Z,101210.48
2019-02-06T06:31:41.689Z,101211.66
2019-02-06T06:32:16.286Z,101209.86
2019-02-06T06:32:51.176Z,101205.91
2019-02-06T06:33:25.823Z,101211.45
2019-02-06T06:34:00.324Z,101204.19
2019-02-06T06:34:34.725Z,101204.97
2019-02-06T06:35:10.010Z,101205.33
2019-02-06T06:35:44.657Z,101198.89
2019-02-06T06:36:19.699Z,101210.46
2019-02-06T06:36:56.715Z,101211.31
2019-02-06T06:37:30.446Z,101210.46